createdAt,value
2023-03-04T00:01:46.118Z,0.33
2023-03-04T00:04:15.082Z,0.33
2023-03-04T00:07:06.678Z,0.32
2023-03-04T00:09:35.223Z,0.28
2023-03-04T00:12:04.579Z,0.27
2023-03-04T00:14:37.181Z,0.23
2023-03-04T00:17:08.106Z,0.18
2023-03-04T00:19:36.990Z,0.16
2023-03-04T00:22:05.656Z,0.14
2023-03-04T00:24:35.318Z,0.10
2023-03-04T00:27:04.088Z,0.10
2023-03-04T00:29:32.600Z,0.11
2023-03-04T00:32:41.542Z,0.10
2023-03-04T00:35:11.298Z,0.08
2023-03-04T00:38:43.252Z,0.04
2023-03-04T00:41:24.346Z,-0.03
2023-03-04T00:43:53.056Z,-0.07
2023-03-04T00:46:24.985Z,-0.10
2023-03-04T00:48:54.803Z,-0.12
2023-03-04T00:51:23.560Z,-0.16
2023-03-04T00:53:52.785Z,-0.21
2023-03-04T00:56:23.573Z,-0.25
2023-03-04T00:58:52.539Z,-0.27
2023-03-04T01:01:21.553Z,-0.32
2023-03-04T01:03:50.100Z,-0.33
2023-03-04T01:06:21.640Z,-0.37
2023-03-04T01:08:52.675Z,-0.41
2023-03-04T01:11:21.547Z,-0.46
2023-03-04T01:13:50.151Z,-0.51
2023-03-04T01:16:19.150Z,-0.56
2023-03-04T01:18:48.768Z,-0.62
2023-03-04T01:21:18.045Z,-0.68
2023-03-04T01:23:46.810Z,-0.72
2023-03-04T01:26:15.821Z,-0.75
2023-03-04T01:28:46.479Z,-0.77
2023-03-04T01:31:15.178Z,-0.80
2023-03-04T01:33:43.766Z,-0.84
2023-03-04T01:36:12.809Z,-0.90
2023-03-04T01:38:42.121Z,-0.94
2023-03-04T01:41:13.776Z,-0.97
2023-03-04T01:43:43.274Z,-1.00
2023-03-04T01:46:16.047Z,-1.03
2023-03-04T01:48:45.384Z,-1.06
2023-03-04T01:51:19.515Z,-1.09
2023-03-04T01:54:28.380Z,-1.11
2023-03-04T01:57:00.413Z,-1.16
2023-03-04T01:59:31.733Z,-1.18
2023-03-04T02:02:01.546Z,-1.18
2023-03-04T02:04:34.557Z,-1.19
2023-03-04T02:07:05.402Z,-1.21
2023-03-04T02:09:35.894Z,-1.24
2023-03-04T02:12:06.877Z,-1.26
2023-03-04T02:14:35.390Z,-1.28
2023-03-04T02:17:13.995Z,-1.30
2023-03-04T02:19:58.359Z,-1.32
2023-03-04T02:22:27.704Z,-1.34
2023-03-04T02:25:21.325Z,-1.37
2023-03-04T02:27:50.066Z,-1.41
2023-03-04T02:30:24.131Z,-1.44
2023-03-04T02:32:53.620Z,-1.49
2023-03-04T02:35:22.284Z,-1.53
2023-03-04T02:37:51.732Z,-1.56
2023-03-04T02:40:46.139Z,-1.59
2023-03-04T02:43:17.186Z,-1.61
2023-03-04T02:45:51.794Z,-1.64
2023-03-04T02:48:25.979Z,-1.67
2023-03-04T02:50:56.282Z,-1.69
2023-03-04T02:53:26.065Z,-1.73
2023-03-04T02:55:54.812Z,-1.75
2023-03-04T02:58:23.816Z,-1.76
2023-03-04T03:01:18.517Z,-1.78
2023-03-04T03:04:47.605Z,-1.81
2023-03-04T03:07:18.535Z,-1.86
2023-03-04T03:09:49.901Z,-1.91
2023-03-04T03:12:22.201Z,-1.91
2023-03-04T03:15:11.630Z,-1.92
2023-03-04T03:17:42.800Z,-1.95
2023-03-04T03:20:13.321Z,-1.99
2023-03-04T03:22:42.380Z,-2.01
2023-03-04T03:25:13.326Z,-2.05
2023-03-04T03:27:42.366Z,-2.07
2023-03-04T03:30:15.628Z,-2.09
2023-03-04T03:33:46.011Z,-2.13
2023-03-04T03:36:14.779Z,-2.15
2023-03-04T03:38:45.433Z,-2.19
2023-03-04T03:41:13.864Z,-2.21
2023-03-04T03:43:42.592Z,-2.23
2023-03-04T03:46:51.954Z,-2.24
2023-03-04T03:49:20.481Z,-2.28
2023-03-04T03:52:09.271Z,-2.31
2023-03-04T03:54:37.636Z,-2.33
2023-03-04T03:57:06.545Z,-2.34
2023-03-04T04:00:16.442Z,-2.36
2023-03-04T04:02:45.702Z,-2.36
2023-03-04T04:05:15.775Z,-2.37
2023-03-04T04:07:44.443Z,-2.39
2023-03-04T04:10:12.782Z,-2.41
2023-03-04T04:12:41.220Z,-2.43
2023-03-04T04:15:12.937Z,-2.45
2023-03-04T04:17:41.680Z,-2.46
2023-03-04T04:20:10.690Z,-2.47
2023-03-04T04:22:39.086Z,-2.48
2023-03-04T04:25:10.756Z,-2.50
2023-03-04T04:27:39.199Z,-2.51
2023-03-04T04:30:08.623Z,-2.53
2023-03-04T04:32:36.963Z,-2.56
2023-03-04T04:35:06.533Z,-2.58
2023-03-04T04:37:35.035Z,-2.60
2023-03-04T04:40:04.814Z,-2.61
2023-03-04T04:42:33.519Z,-2.61
2023-03-04T04:45:02.407Z,-2.62
2023-03-04T04:47:30.978Z,-2.63
2023-03-04T04:50:39.455Z,-2.64
2023-03-04T04:53:07.945Z,-2.67
2023-03-04T04:55:56.548Z,-2.68
2023-03-04T04:58:25.318Z,-2.71
2023-03-04T05:00:59.944Z,-2.72
2023-03-04T05:03:28.368Z,-2.72
2023-03-04T05:06:54.185Z,-2.74
2023-03-04T05:09:23.179Z,-2.72
2023-03-04T05:12:32.331Z,-2.70
2023-03-04T05:15:00.861Z,-2.67
2023-03-04T05:17:31.756Z,-2.65
2023-03-04T05:20:44.367Z,-2.64
2023-03-04T05:23:12.733Z,-2.61
2023-03-04T05:25:41.323Z,-2.59
2023-03-04T05:28:12.671Z,-2.57
2023-03-04T05:31:24.110Z,-2.54
2023-03-04T05:33:52.401Z,-2.51
2023-03-04T05:37:01.169Z,-2.50
2023-03-04T05:39:29.604Z,-2.46
2023-03-04T05:41:58.122Z,-2.41
2023-03-04T05:44:26.510Z,-2.34
2023-03-04T05:47:35.350Z,-2.25
2023-03-04T05:50:04.085Z,-2.12
2023-03-04T05:52:32.628Z,-2.01
2023-03-04T05:55:42.062Z,-1.91
2023-03-04T05:58:10.695Z,-1.72
2023-03-04T06:00:39.207Z,-1.57
2023-03-04T06:03:08.022Z,-1.41
2023-03-04T06:05:37.133Z,-1.24
2023-03-04T06:08:46.062Z,-1.09
2023-03-04T06:11:14.677Z,-0.90
2023-03-04T06:13:43.368Z,-0.72
2023-03-04T06:16:55.947Z,-0.55
2023-03-04T06:19:25.141Z,-0.33
2023-03-04T06:21:54.330Z,-0.15
2023-03-04T06:24:23.173Z,0.03
2023-03-04T06:26:52.416Z,0.19
2023-03-04T06:30:02.296Z,0.36
2023-03-04T06:32:31.029Z,0.64
2023-03-04T06:35:00.603Z,0.86
2023-03-04T06:38:29.795Z,1.03
2023-03-04T06:41:08.220Z,1.27
2023-03-04T06:44:37.379Z,1.45
2023-03-04T06:47:10.781Z,1.69
2023-03-04T06:49:59.373Z,1.88
2023-03-04T06:52:27.920Z,2.03
2023-03-04T06:55:53.032Z,2.21
2023-03-04T06:59:07.845Z,2.33
2023-03-04T07:03:15.245Z,2.54
2023-03-04T07:06:27.513Z,2.93
2023-03-04T07:16:33.915Z,4.08
2023-03-04T07:19:03.430Z,4.35
2023-03-04T07:22:08.899Z,4.69
2023-03-04T07:24:58.740Z,5.07
2023-03-04T07:33:03.251Z,5.89
2023-03-04T07:35:34.678Z,6.31
2023-03-04T07:38:13.297Z,6.55
2023-03-04T07:40:58.552Z,6.78
2023-03-04T07:43:40.725Z,6.95
2023-03-04T07:46:26.653Z,7.11
2023-03-04T07:49:11.952Z,7.37
2023-03-04T07:51:43.735Z,7.66
2023-03-04T07:54:34.500Z,7.96
2023-03-04T07:57:03.183Z,8.27
2023-03-04T07:59:32.150Z,8.52
2023-03-04T08:02:05.111Z,8.79
2023-03-04T08:04:38.671Z,9.03
2023-03-04T08:07:08.428Z,9.27
2023-03-04T08:09:39.388Z,9.52
2023-03-04T08:12:08.777Z,9.78
2023-03-04T08:14:37.478Z,10.09
2023-03-04T08:17:09.976Z,10.34
2023-03-04T08:19:43.783Z,10.55
2023-03-04T08:22:53.600Z,10.83
2023-03-04T08:25:22.462Z,11.14
2023-03-04T08:27:51.485Z,11.35
2023-03-04T08:30:20.291Z,11.56
2023-03-04T08:32:49.131Z,11.80
2023-03-04T08:35:21.013Z,11.99
2023-03-04T08:37:50.443Z,12.13
2023-03-04T08:40:19.632Z,12.24
2023-03-04T08:42:48.511Z,12.41
2023-03-04T08:45:20.090Z,12.64
2023-03-04T08:47:54.502Z,12.84
2023-03-04T08:50:23.005Z,12.99
2023-03-04T08:52:56.140Z,13.10
2023-03-04T08:55:24.826Z,13.21
2023-03-04T08:57:58.123Z,13.33
2023-03-04T09:00:46.944Z,13.47
2023-03-04T09:03:19.177Z,13.65
2023-03-04T09:05:49.417Z,13.84
2023-03-04T09:08:18.739Z,13.97
2023-03-04T09:10:49.782Z,14.11
2023-03-04T09:13:18.411Z,14.28
2023-03-04T09:16:17.676Z,14.46
2023-03-04T09:18:50.453Z,14.60
2023-03-04T09:21:18.977Z,14.73
2023-03-04T09:23:47.743Z,14.88
2023-03-04T09:26:25.218Z,15.00
2023-03-04T09:29:34.079Z,15.12
2023-03-04T09:32:05.053Z,15.22
2023-03-04T09:34:33.712Z,15.19
2023-03-04T09:37:02.218Z,15.21
2023-03-04T09:39:30.686Z,15.19
2023-03-04T09:42:01.947Z,15.21
2023-03-04T09:44:41.549Z,15.25
2023-03-04T09:47:20.909Z,15.34
2023-03-04T09:50:00.341Z,15.37
2023-03-04T09:52:41.164Z,15.32
2023-03-04T09:55:33.274Z,15.02
2023-03-04T09:58:34.388Z,14.84
2023-03-04T10:01:47.209Z,14.70
2023-03-04T10:10:10.360Z,14.51
2023-03-04T10:17:24.496Z,14.48
2023-03-04T10:21:33.518Z,14.57
2023-03-04T10:29:00.044Z,14.98
2023-03-04T10:32:06.710Z,15.07
2023-03-04T10:48:55.808Z,15.46
2023-03-04T10:52:04.062Z,15.78
2023-03-04T11:02:11.216Z,16.37
2023-03-04T11:47:30.453Z,17.63
2023-03-04T11:50:53.738Z,18.03
2023-03-04T11:54:31.444Z,18.18
2023-03-04T11:57:37.417Z,18.34
2023-03-04T12:00:36.517Z,18.70
2023-03-04T12:03:24.931Z,18.96
2023-03-04T12:12:01.011Z,19.01
2023-03-04T12:15:46.086Z,19.07
2023-03-04T12:18:44.890Z,19.07
2023-03-04T12:22:26.549Z,18.97
2023-03-04T12:26:47.632Z,18.75
2023-03-04T12:35:44.187Z,18.10
2023-03-04T13:07:27.026Z,17.81
2023-03-04T13:37:23.723Z,17.76
2023-03-04T14:05:20.162Z,16.45
2023-03-04T14:28:18.750Z,14.29
2023-03-04T14:32:02.838Z,14.28
2023-03-04T14:36:25.426Z,14.29
2023-03-04T14:49:52.156Z,14.28
2023-03-04T15:04:23.256Z,14.12
2023-03-04T16:27:24.363Z,9.67
2023-03-04T16:30:04.345Z,9.56
2023-03-04T16:32:35.825Z,9.46
2023-03-04T16:35:19.091Z,9.34
2023-03-04T16:37:52.665Z,9.22
2023-03-04T16:40:36.981Z,9.08
2023-03-04T16:43:25.706Z,8.92
2023-03-04T16:46:07.985Z,8.77
2023-03-04T16:48:36.760Z,8.63
2023-03-04T16:52:29.254Z,8.48
2023-03-04T16:55:28.995Z,8.28
2023-03-04T17:03:02.727Z,7.93
2023-03-04T17:05:34.548Z,7.78
2023-03-04T17:08:02.940Z,7.65
2023-03-04T17:10:33.295Z,7.49
2023-03-04T17:13:02.236Z,7.39
2023-03-04T17:15:37.847Z,7.28
2023-03-04T17:18:48.854Z,7.18
2023-03-04T22:07:09.523Z,-0.68
2023-03-04T22:09:39.180Z,-0.72
2023-03-04T22:12:08.417Z,-0.77
2023-03-04T22:14:37.146Z,-0.80
2023-03-04T22:17:06.033Z,-0.83
2023-03-04T22:19:34.680Z,-0.87
2023-03-04T22:22:06.595Z,-0.91
2023-03-04T22:25:38.043Z,-0.97
2023-03-04T22:28:07.973Z,-0.99
2023-03-04T22:31:37.318Z,-1.03
2023-03-04T22:35:10.345Z,-1.07
2023-03-04T22:37:39.841Z,-1.11
2023-03-04T22:40:11.504Z,-1.12
2023-03-04T22:43:00.326Z,-1.16
2023-03-04T22:45:32.970Z,-1.19
2023-03-04T22:48:03.027Z,-1.21
2023-03-04T22:50:31.515Z,-1.25
2023-03-04T22:53:00.101Z,-1.30
2023-03-04T22:55:49.301Z,-1.30
2023-03-04T22:58:17.940Z,-1.35
2023-03-04T23:00:50.875Z,-1.38
2023-03-04T23:03:19.602Z,-1.44
2023-03-04T23:05:48.608Z,-1.43
2023-03-04T23:08:21.026Z,-1.45
2023-03-04T23:10:49.677Z,-1.49
2023-03-04T23:13:21.445Z,-1.52
2023-03-04T23:16:50.789Z,-1.55
2023-03-04T23:19:20.220Z,-1.59
2023-03-04T23:21:51.226Z,-1.61
2023-03-04T23:25:20.532Z,-1.64
2023-03-04T23:28:49.796Z,-1.69
2023-03-04T23:31:19.930Z,-1.75
2023-03-04T23:33:48.623Z,-1.75
2023-03-04T23:36:19.476Z,-1.78
2023-03-04T23:38:49.837Z,-1.79
2023-03-04T23:41:21.900Z,-1.80
2023-03-04T23:43:53.576Z,-1.82
2023-03-04T23:46:22.598Z,-1.83
2023-03-04T23:48:52.711Z,-1.86
2023-03-04T23:51:25.246Z,-1.87
2023-03-04T23:54:34.314Z,-1.88
2023-03-04T23:57:43.247Z,-1.90
